sensor_id;sensor_type;location;lat;lon;timestamp;temperature;humidity
21672;DHT22;10997;52.242;8.168;2023-05-16T00:02:41;10.60;99.90
21672;DHT22;10997;52.242;8.168;2023-05-16T00:07:44;10.70;99.90
21672;DHT22;10997;52.242;8.168;2023-05-16T00:12:44;10.70;99.90
21672;DHT22;10997;52.242;8.168;2023-05-16T00:17:49;10.60;99.90
21672;DHT22;10997;52.242;8.168;2023-05-16T00:22:50;10.60;99.90
21672;DHT22;10997;52.242;8.168;2023-05-16T00:27:51;10.60;99.90
21672;DHT22;10997;52.242;8.168;2023-05-16T00:32:54;10.60;99.90
21672;DHT22;10997;52.242;8.168;2023-05-16T00:37:55;10.60;99.90
21672;DHT22;10997;52.242;8.168;2023-05-16T00:42:55;10.60;99.90
21672;DHT22;10997;52.242;8.168;2023-05-16T00:47:56;10.60;99.90
21672;DHT22;10997;52.242;8.168;2023-05-16T00:52:56;10.50;99.90
21672;DHT22;10997;52.242;8.168;2023-05-16T00:57:57;10.40;99.90
21672;DHT22;10997;52.242;8.168;2023-05-16T01:02:59;10.10;99.90
21672;DHT22;10997;52.242;8.168;2023-05-16T01:08:00;9.80;99.90
21672;DHT22;10997;52.242;8.168;2023-05-16T01:13:11;9.70;99.90
21672;DHT22;10997;52.242;8.168;2023-05-16T01:23:32;9.60;99.90
21672;DHT22;10997;52.242;8.168;2023-05-16T01:28:33;9.50;99.90
21672;DHT22;10997;52.242;8.168;2023-05-16T01:33:34;9.50;99.90
21672;DHT22;10997;52.242;8.168;2023-05-16T01:38:40;9.60;99.90
21672;DHT22;10997;52.242;8.168;2023-05-16T01:43:47;9.50;99.90
21672;DHT22;10997;52.242;8.168;2023-05-16T01:49:20;9.50;99.90
21672;DHT22;10997;52.242;8.168;2023-05-16T01:54:25;9.50;99.90
21672;DHT22;10997;52.242;8.168;2023-05-16T01:59:28;9.40;99.90
21672;DHT22;10997;52.242;8.168;2023-05-16T02:04:29;9.40;99.90
21672;DHT22;10997;52.242;8.168;2023-05-16T02:09:30;9.40;99.90
21672;DHT22;10997;52.242;8.168;2023-05-16T02:14:31;9.40;99.90
21672;DHT22;10997;52.242;8.168;2023-05-16T02:19:31;9.40;99.90
21672;DHT22;10997;52.242;8.168;2023-05-16T02:24:32;9.40;99.90
21672;DHT22;10997;52.242;8.168;2023-05-16T02:29:33;9.40;99.90
21672;DHT22;10997;52.242;8.168;2023-05-16T02:34:33;9.40;99.90
21672;DHT22;10997;52.242;8.168;2023-05-16T02:39:34;9.40;99.90
21672;DHT22;10997;52.242;8.168;2023-05-16T02:44:35;9.30;99.90
21672;DHT22;10997;52.242;8.168;2023-05-16T02:49:35;9.20;99.90
21672;DHT22;10997;52.242;8.168;2023-05-16T02:54:36;9.10;99.90
21672;DHT22;10997;52.242;8.168;2023-05-16T02:59:36;9.00;99.90
21672;DHT22;10997;52.242;8.168;2023-05-16T03:04:37;9.00;99.90
21672;DHT22;10997;52.242;8.168;2023-05-16T03:09:38;8.80;99.90
21672;DHT22;10997;52.242;8.168;2023-05-16T03:14:38;8.70;99.90
21672;DHT22;10997;52.242;8.168;2023-05-16T03:19:39;8.70;99.90
21672;DHT22;10997;52.242;8.168;2023-05-16T03:24:39;8.60;99.90
21672;DHT22;10997;52.242;8.168;2023-05-16T03:29:40;8.60;99.90
21672;DHT22;10997;52.242;8.168;2023-05-16T03:34:40;8.50;99.90
21672;DHT22;10997;52.242;8.168;2023-05-16T03:39:41;8.40;99.90
21672;DHT22;10997;52.242;8.168;2023-05-16T03:44:42;8.40;99.90
21672;DHT22;10997;52.242;8.168;2023-05-16T03:49:42;8.40;99.90
21672;DHT22;10997;52.242;8.168;2023-05-16T03:54:43;8.50;99.90
21672;DHT22;10997;52.242;8.168;2023-05-16T03:59:43;8.40;99.90
21672;DHT22;10997;52.242;8.168;2023-05-16T04:04:44;8.40;99.90
21672;DHT22;10997;52.242;8.168;2023-05-16T04:09:45;8.40;99.90
21672;DHT22;10997;52.242;8.168;2023-05-16T04:14:45;8.30;99.90
21672;DHT22;10997;52.242;8.168;2023-05-16T04:19:46;8.30;99.90
21672;DHT22;10997;52.242;8.168;2023-05-16T04:24:47;8.30;99.90
21672;DHT22;10997;52.242;8.168;2023-05-16T04:29:48;8.30;99.90
21672;DHT22;10997;52.242;8.168;2023-05-16T04:34:48;8.30;99.90
21672;DHT22;10997;52.242;8.168;2023-05-16T04:39:49;8.40;99.90
21672;DHT22;10997;52.242;8.168;2023-05-16T04:44:50;8.40;99.90
21672;DHT22;10997;52.242;8.168;2023-05-16T04:49:51;8.30;99.90
21672;DHT22;10997;52.242;8.168;2023-05-16T04:54:52;8.20;99.90
21672;DHT22;10997;52.242;8.168;2023-05-16T04:59:53;8.10;99.90
21672;DHT22;10997;52.242;8.168;2023-05-16T05:04:53;8.00;99.90
21672;DHT22;10997;52.242;8.168;2023-05-16T05:09:54;8.00;99.90
21672;DHT22;10997;52.242;8.168;2023-05-16T05:14:55;8.00;99.90
21672;DHT22;10997;52.242;8.168;2023-05-16T05:19:56;8.00;99.90
21672;DHT22;10997;52.242;8.168;2023-05-16T05:24:56;8.00;99.90
21672;DHT22;10997;52.242;8.168;2023-05-16T05:29:57;8.20;99.90
21672;DHT22;10997;52.242;8.168;2023-05-16T05:34:57;8.40;99.90
21672;DHT22;10997;52.242;8.168;2023-05-16T05:39:58;8.50;99.90
21672;DHT22;10997;52.242;8.168;2023-05-16T05:44:59;8.60;99.90
21672;DHT22;10997;52.242;8.168;2023-05-16T05:49:59;8.70;99.90
21672;DHT22;10997;52.242;8.168;2023-05-16T05:55:00;8.70;99.90
21672;DHT22;10997;52.242;8.168;2023-05-16T06:00:01;8.70;99.90
21672;DHT22;10997;52.242;8.168;2023-05-16T06:05:03;8.80;99.90
21672;DHT22;10997;52.242;8.168;2023-05-16T06:10:04;8.90;99.90
21672;DHT22;10997;52.242;8.168;2023-05-16T06:15:05;9.00;99.90
21672;DHT22;10997;52.242;8.168;2023-05-16T06:20:07;9.20;99.90
21672;DHT22;10997;52.242;8.168;2023-05-16T06:25:08;9.10;99.90
21672;DHT22;10997;52.242;8.168;2023-05-16T06:30:09;9.20;99.90
21672;DHT22;10997;52.242;8.168;2023-05-16T06:35:09;9.30;99.90
21672;DHT22;10997;52.242;8.168;2023-05-16T06:40:10;9.70;99.90
21672;DHT22;10997;52.242;8.168;2023-05-16T06:45:11;9.80;99.90
21672;DHT22;10997;52.242;8.168;2023-05-16T06:50:12;9.70;99.90
21672;DHT22;10997;52.242;8.168;2023-05-16T06:55:13;9.70;99.90
21672;DHT22;10997;52.242;8.168;2023-05-16T07:00:14;9.90;99.90
21672;DHT22;10997;52.242;8.168;2023-05-16T07:05:14;9.90;99.90
21672;DHT22;10997;52.242;8.168;2023-05-16T07:10:15;10.00;99.90
21672;DHT22;10997;52.242;8.168;2023-05-16T07:15:16;10.00;99.90
21672;DHT22;10997;52.242;8.168;2023-05-16T07:20:16;10.40;99.90
21672;DHT22;10997;52.242;8.168;2023-05-16T07:25:17;10.60;99.90
21672;DHT22;10997;52.242;8.168;2023-05-16T07:30:18;11.00;99.90
21672;DHT22;10997;52.242;8.168;2023-05-16T07:35:19;11.00;99.90
21672;DHT22;10997;52.242;8.168;2023-05-16T07:40:19;11.00;99.90
21672;DHT22;10997;52.242;8.168;2023-05-16T07:45:25;10.80;99.90
21672;DHT22;10997;52.242;8.168;2023-05-16T07:50:25;10.50;99.90
21672;DHT22;10997;52.242;8.168;2023-05-16T07:55:26;10.90;99.90
21672;DHT22;10997;52.242;8.168;2023-05-16T08:00:27;11.40;99.90
21672;DHT22;10997;52.242;8.168;2023-05-16T08:05:28;11.00;99.90
21672;DHT22;10997;52.242;8.168;2023-05-16T08:10:28;11.30;99.90
21672;DHT22;10997;52.242;8.168;2023-05-16T08:15:29;11.40;99.90
21672;DHT22;10997;52.242;8.168;2023-05-16T08:20:30;11.00;99.90
21672;DHT22;10997;52.242;8.168;2023-05-16T08:25:30;11.10;99.90
21672;DHT22;10997;52.242;8.168;2023-05-16T08:30:31;11.60;99.90
21672;DHT22;10997;52.242;8.168;2023-05-16T08:35:32;11.80;99.90
21672;DHT22;10997;52.242;8.168;2023-05-16T08:40:34;11.80;99.90
21672;DHT22;10997;52.242;8.168;2023-05-16T08:45:35;12.20;99.90
21672;DHT22;10997;52.242;8.168;2023-05-16T08:50:36;12.40;99.90
21672;DHT22;10997;52.242;8.168;2023-05-16T08:55:37;12.30;99.90
21672;DHT22;10997;52.242;8.168;2023-05-16T09:00:38;11.70;99.90
21672;DHT22;10997;52.242;8.168;2023-05-16T09:05:39;11.60;99.90
21672;DHT22;10997;52.242;8.168;2023-05-16T09:10:40;12.00;99.90
21672;DHT22;10997;52.242;8.168;2023-05-16T09:15:41;12.80;99.90
21672;DHT22;10997;52.242;8.168;2023-05-16T09:20:47;13.10;99.90
21672;DHT22;10997;52.242;8.168;2023-05-16T09:25:52;12.40;99.90
21672;DHT22;10997;52.242;8.168;2023-05-16T09:30:54;12.30;99.90
21672;DHT22;10997;52.242;8.168;2023-05-16T09:35:59;12.80;99.90
21672;DHT22;10997;52.242;8.168;2023-05-16T09:41:01;12.80;99.90
21672;DHT22;10997;52.242;8.168;2023-05-16T09:46:01;13.50;99.90
21672;DHT22;10997;52.242;8.168;2023-05-16T09:51:04;13.40;99.90
21672;DHT22;10997;52.242;8.168;2023-05-16T09:56:07;13.30;99.90
21672;DHT22;10997;52.242;8.168;2023-05-16T10:01:10;13.20;99.90
21672;DHT22;10997;52.242;8.168;2023-05-16T10:06:11;12.80;99.90
21672;DHT22;10997;52.242;8.168;2023-05-16T10:11:12;13.50;99.90
21672;DHT22;10997;52.242;8.168;2023-05-16T10:16:14;13.60;99.90
21672;DHT22;10997;52.242;8.168;2023-05-16T10:21:17;13.30;99.90
21672;DHT22;10997;52.242;8.168;2023-05-16T10:26:19;13.30;99.90
21672;DHT22;10997;52.242;8.168;2023-05-16T10:31:22;13.30;99.90
21672;DHT22;10997;52.242;8.168;2023-05-16T10:36:24;13.70;99.90
21672;DHT22;10997;52.242;8.168;2023-05-16T10:41:25;13.70;99.90
21672;DHT22;10997;52.242;8.168;2023-05-16T10:46:26;13.30;99.90
21672;DHT22;10997;52.242;8.168;2023-05-16T10:51:34;13.30;99.90
21672;DHT22;10997;52.242;8.168;2023-05-16T10:56:35;13.40;99.90
21672;DHT22;10997;52.242;8.168;2023-05-16T11:01:39;14.00;99.90
21672;DHT22;10997;52.242;8.168;2023-05-16T11:12:00;15.20;99.90
21672;DHT22;10997;52.242;8.168;2023-05-16T11:22:27;14.80;99.60
21672;DHT22;10997;52.242;8.168;2023-05-16T11:27:29;14.90;99.90
21672;DHT22;10997;52.242;8.168;2023-05-16T11:32:34;15.40;99.90
21672;DHT22;10997;52.242;8.168;2023-05-16T11:37:35;15.00;94.80
21672;DHT22;10997;52.242;8.168;2023-05-16T11:42:46;15.30;96.20
21672;DHT22;10997;52.242;8.168;2023-05-16T11:47:47;15.10;95.80
21672;DHT22;10997;52.242;8.168;2023-05-16T11:52:50;14.60;95.00
21672;DHT22;10997;52.242;8.168;2023-05-16T11:57:57;14.20;95.20
21672;DHT22;10997;52.242;8.168;2023-05-16T12:03:02;13.50;96.30
21672;DHT22;10997;52.242;8.168;2023-05-16T12:08:04;13.90;98.70
21672;DHT22;10997;52.242;8.168;2023-05-16T12:13:06;14.80;96.80
21672;DHT22;10997;52.242;8.168;2023-05-16T12:18:07;14.70;95.10
21672;DHT22;10997;52.242;8.168;2023-05-16T12:23:12;15.70;95.30
21672;DHT22;10997;52.242;8.168;2023-05-16T12:28:13;15.90;94.30
21672;DHT22;10997;52.242;8.168;2023-05-16T12:33:15;15.80;91.50
21672;DHT22;10997;52.242;8.168;2023-05-16T12:38:15;15.30;91.30
21672;DHT22;10997;52.242;8.168;2023-05-16T12:43:21;15.10;90.50
21672;DHT22;10997;52.242;8.168;2023-05-16T12:48:23;14.70;90.90
21672;DHT22;10997;52.242;8.168;2023-05-16T12:53:40;14.30;93.10
21672;DHT22;10997;52.242;8.168;2023-05-16T12:58:41;14.60;93.80
21672;DHT22;10997;52.242;8.168;2023-05-16T13:03:42;14.70;94.50
21672;DHT22;10997;52.242;8.168;2023-05-16T13:08:42;14.40;96.00
21672;DHT22;10997;52.242;8.168;2023-05-16T13:13:44;14.40;97.00
21672;DHT22;10997;52.242;8.168;2023-05-16T13:18:44;13.90;97.40
21672;DHT22;10997;52.242;8.168;2023-05-16T13:23:45;13.90;97.80
21672;DHT22;10997;52.242;8.168;2023-05-16T13:28:46;14.60;98.90
21672;DHT22;10997;52.242;8.168;2023-05-16T13:33:47;15.40;98.20
21672;DHT22;10997;52.242;8.168;2023-05-16T13:38:47;15.10;97.00
21672;DHT22;10997;52.242;8.168;2023-05-16T13:43:48;15.20;96.90
21672;DHT22;10997;52.242;8.168;2023-05-16T13:48:49;15.70;96.60
21672;DHT22;10997;52.242;8.168;2023-05-16T13:53:49;15.40;96.20
21672;DHT22;10997;52.242;8.168;2023-05-16T13:58:50;14.70;97.20
21672;DHT22;10997;52.242;8.168;2023-05-16T14:03:51;14.00;98.30
21672;DHT22;10997;52.242;8.168;2023-05-16T14:08:51;14.60;99.20
21672;DHT22;10997;52.242;8.168;2023-05-16T14:13:52;14.50;96.60
21672;DHT22;10997;52.242;8.168;2023-05-16T14:18:53;14.60;96.80
21672;DHT22;10997;52.242;8.168;2023-05-16T14:23:54;14.70;96.00
21672;DHT22;10997;52.242;8.168;2023-05-16T14:28:54;14.70;95.50
21672;DHT22;10997;52.242;8.168;2023-05-16T14:33:56;14.60;95.10
21672;DHT22;10997;52.242;8.168;2023-05-16T14:38:57;14.20;95.80
21672;DHT22;10997;52.242;8.168;2023-05-16T14:43:57;14.00;96.20
21672;DHT22;10997;52.242;8.168;2023-05-16T14:48:58;13.80;97.10
21672;DHT22;10997;52.242;8.168;2023-05-16T14:53:59;13.80;97.70
21672;DHT22;10997;52.242;8.168;2023-05-16T14:58:59;14.10;97.30
21672;DHT22;10997;52.242;8.168;2023-05-16T15:04:00;14.50;96.70
21672;DHT22;10997;52.242;8.168;2023-05-16T15:09:01;14.30;96.50
21672;DHT22;10997;52.242;8.168;2023-05-16T15:14:02;14.60;96.30
21672;DHT22;10997;52.242;8.168;2023-05-16T15:19:03;14.40;95.90
21672;DHT22;10997;52.242;8.168;2023-05-16T15:24:04;14.00;96.20
21672;DHT22;10997;52.242;8.168;2023-05-16T15:29:04;14.40;96.70
21672;DHT22;10997;52.242;8.168;2023-05-16T15:34:05;15.00;96.40
21672;DHT22;10997;52.242;8.168;2023-05-16T15:39:07;15.50;96.30
21672;DHT22;10997;52.242;8.168;2023-05-16T15:44:08;15.50;96.20
21672;DHT22;10997;52.242;8.168;2023-05-16T15:49:09;15.50;96.50
21672;DHT22;10997;52.242;8.168;2023-05-16T15:54:09;15.10;95.70
21672;DHT22;10997;52.242;8.168;2023-05-16T15:59:11;14.60;95.00
21672;DHT22;10997;52.242;8.168;2023-05-16T16:04:11;14.20;94.90
21672;DHT22;10997;52.242;8.168;2023-05-16T16:09:12;13.80;94.90
21672;DHT22;10997;52.242;8.168;2023-05-16T16:14:12;13.80;95.30
21672;DHT22;10997;52.242;8.168;2023-05-16T16:19:13;14.00;95.90
21672;DHT22;10997;52.242;8.168;2023-05-16T16:24:13;14.10;96.10
21672;DHT22;10997;52.242;8.168;2023-05-16T16:29:14;14.10;96.30
21672;DHT22;10997;52.242;8.168;2023-05-16T16:34:15;14.20;96.70
21672;DHT22;10997;52.242;8.168;2023-05-16T16:39:15;13.90;97.40
21672;DHT22;10997;52.242;8.168;2023-05-16T16:44:17;13.30;97.70
21672;DHT22;10997;52.242;8.168;2023-05-16T16:49:18;13.00;98.00
21672;DHT22;10997;52.242;8.168;2023-05-16T16:54:18;13.20;98.40
21672;DHT22;10997;52.242;8.168;2023-05-16T16:59:21;13.10;97.90
21672;DHT22;10997;52.242;8.168;2023-05-16T17:04:22;12.80;99.10
21672;DHT22;10997;52.242;8.168;2023-05-16T17:09:22;12.70;99.10
21672;DHT22;10997;52.242;8.168;2023-05-16T17:14:24;12.50;99.80
21672;DHT22;10997;52.242;8.168;2023-05-16T17:19:25;12.40;99.90
21672;DHT22;10997;52.242;8.168;2023-05-16T17:24:25;12.30;99.90
21672;DHT22;10997;52.242;8.168;2023-05-16T17:29:26;12.10;99.90
21672;DHT22;10997;52.242;8.168;2023-05-16T17:34:27;12.00;99.90
21672;DHT22;10997;52.242;8.168;2023-05-16T17:39:27;11.80;99.90
21672;DHT22;10997;52.242;8.168;2023-05-16T17:44:28;11.70;99.90
21672;DHT22;10997;52.242;8.168;2023-05-16T17:49:28;11.70;99.90
21672;DHT22;10997;52.242;8.168;2023-05-16T17:54:29;11.70;99.90
21672;DHT22;10997;52.242;8.168;2023-05-16T17:59:31;11.50;99.90
21672;DHT22;10997;52.242;8.168;2023-05-16T18:04:32;11.30;99.90
21672;DHT22;10997;52.242;8.168;2023-05-16T18:09:32;11.30;99.90
21672;DHT22;10997;52.242;8.168;2023-05-16T18:14:33;11.10;99.90
21672;DHT22;10997;52.242;8.168;2023-05-16T18:19:34;11.10;99.90
21672;DHT22;10997;52.242;8.168;2023-05-16T18:24:35;11.00;99.90
21672;DHT22;10997;52.242;8.168;2023-05-16T18:29:36;11.00;99.90
21672;DHT22;10997;52.242;8.168;2023-05-16T18:34:37;10.90;99.90
21672;DHT22;10997;52.242;8.168;2023-05-16T18:39:37;10.90;99.90
21672;DHT22;10997;52.242;8.168;2023-05-16T18:44:38;10.80;99.90
21672;DHT22;10997;52.242;8.168;2023-05-16T18:49:39;10.80;99.90
21672;DHT22;10997;52.242;8.168;2023-05-16T18:54:39;10.70;99.90
21672;DHT22;10997;52.242;8.168;2023-05-16T18:59:40;10.70;99.90
21672;DHT22;10997;52.242;8.168;2023-05-16T19:04:40;10.60;99.90
21672;DHT22;10997;52.242;8.168;2023-05-16T19:09:41;10.60;99.90
21672;DHT22;10997;52.242;8.168;2023-05-16T19:14:42;10.50;99.90
21672;DHT22;10997;52.242;8.168;2023-05-16T19:19:42;10.50;99.90
21672;DHT22;10997;52.242;8.168;2023-05-16T19:24:43;10.50;99.90
21672;DHT22;10997;52.242;8.168;2023-05-16T19:29:43;10.50;99.90
21672;DHT22;10997;52.242;8.168;2023-05-16T19:34:44;10.50;99.90
21672;DHT22;10997;52.242;8.168;2023-05-16T19:39:45;10.50;99.90
21672;DHT22;10997;52.242;8.168;2023-05-16T19:44:45;10.60;99.90
21672;DHT22;10997;52.242;8.168;2023-05-16T19:49:46;10.60;99.90
21672;DHT22;10997;52.242;8.168;2023-05-16T19:54:46;10.50;99.90
21672;DHT22;10997;52.242;8.168;2023-05-16T19:59:47;10.40;99.90
21672;DHT22;10997;52.242;8.168;2023-05-16T20:04:47;10.30;99.90
21672;DHT22;10997;52.242;8.168;2023-05-16T20:09:48;10.20;99.90
21672;DHT22;10997;52.242;8.168;2023-05-16T20:14:48;10.20;99.90
21672;DHT22;10997;52.242;8.168;2023-05-16T20:19:50;10.10;99.90
21672;DHT22;10997;52.242;8.168;2023-05-16T20:24:51;10.10;99.90
21672;DHT22;10997;52.242;8.168;2023-05-16T20:29:51;10.00;99.90
21672;DHT22;10997;52.242;8.168;2023-05-16T20:34:53;9.90;99.90
21672;DHT22;10997;52.242;8.168;2023-05-16T20:39:54;9.80;99.90
21672;DHT22;10997;52.242;8.168;2023-05-16T20:44:54;9.80;99.90
21672;DHT22;10997;52.242;8.168;2023-05-16T20:49:55;9.80;99.90
21672;DHT22;10997;52.242;8.168;2023-05-16T20:54:56;9.70;99.90
21672;DHT22;10997;52.242;8.168;2023-05-16T20:59:57;9.60;99.90
21672;DHT22;10997;52.242;8.168;2023-05-16T21:04:58;9.40;99.90
21672;DHT22;10997;52.242;8.168;2023-05-16T21:09:58;9.30;99.90
21672;DHT22;10997;52.242;8.168;2023-05-16T21:14:59;9.10;99.90
21672;DHT22;10997;52.242;8.168;2023-05-16T21:19:59;8.90;99.90
21672;DHT22;10997;52.242;8.168;2023-05-16T21:25:00;8.90;99.90
21672;DHT22;10997;52.242;8.168;2023-05-16T21:30:01;8.80;99.90
21672;DHT22;10997;52.242;8.168;2023-05-16T21:35:02;8.70;99.90
21672;DHT22;10997;52.242;8.168;2023-05-16T21:40:04;8.60;99.90
21672;DHT22;10997;52.242;8.168;2023-05-16T21:45:08;8.60;99.90
21672;DHT22;10997;52.242;8.168;2023-05-16T21:50:12;8.50;99.90
21672;DHT22;10997;52.242;8.168;2023-05-16T21:55:12;8.40;99.90
21672;DHT22;10997;52.242;8.168;2023-05-16T22:00:13;8.40;99.90
21672;DHT22;10997;52.242;8.168;2023-05-16T22:05:15;8.40;99.90
21672;DHT22;10997;52.242;8.168;2023-05-16T22:10:18;8.50;99.90
21672;DHT22;10997;52.242;8.168;2023-05-16T22:15:19;8.70;99.90
21672;DHT22;10997;52.242;8.168;2023-05-16T22:20:19;8.80;99.90
21672;DHT22;10997;52.242;8.168;2023-05-16T22:25:20;8.80;99.90
21672;DHT22;10997;52.242;8.168;2023-05-16T22:30:21;8.90;99.90
21672;DHT22;10997;52.242;8.168;2023-05-16T22:35:22;9.00;99.90
21672;DHT22;10997;52.242;8.168;2023-05-16T22:40:25;9.10;99.90
21672;DHT22;10997;52.242;8.168;2023-05-16T22:45:26;9.00;99.90
21672;DHT22;10997;52.242;8.168;2023-05-16T22:50:26;9.00;99.90
21672;DHT22;10997;52.242;8.168;2023-05-16T22:55:27;8.90;99.90
21672;DHT22;10997;52.242;8.168;2023-05-16T23:00:27;8.90;99.90
21672;DHT22;10997;52.242;8.168;2023-05-16T23:05:28;8.90;99.90
21672;DHT22;10997;52.242;8.168;2023-05-16T23:10:30;8.90;99.90
21672;DHT22;10997;52.242;8.168;2023-05-16T23:15:30;8.90;99.90
21672;DHT22;10997;52.242;8.168;2023-05-16T23:20:31;8.70;99.90
21672;DHT22;10997;52.242;8.168;2023-05-16T23:25:32;8.60;99.90
21672;DHT22;10997;52.242;8.168;2023-05-16T23:30:32;8.50;99.90
21672;DHT22;10997;52.242;8.168;2023-05-16T23:35:33;8.40;99.90
21672;DHT22;10997;52.242;8.168;2023-05-16T23:40:34;8.40;99.90
21672;DHT22;10997;52.242;8.168;2023-05-16T23:45:34;8.30;99.90
21672;DHT22;10997;52.242;8.168;2023-05-16T23:50:35;8.30;99.90
21672;DHT22;10997;52.242;8.168;2023-05-16T23:55:35;8.20;99.90
